createdAt,value
2019-06-01T00:02:18.726Z,87.30
2019-06-01T00:04:50.041Z,87.00
2019-06-01T00:07:19.901Z,86.40
2019-06-01T00:09:49.804Z,87.60
2019-06-01T00:12:20.920Z,86.90
2019-06-01T00:14:51.930Z,87.40
2019-06-01T00:17:21.770Z,87.70
2019-06-01T00:19:51.923Z,88.00
2019-06-01T00:22:21.752Z,87.50
2019-06-01T00:24:52.278Z,88.10
2019-06-01T00:27:22.281Z,88.50
2019-06-01T00:29:53.083Z,88.30
2019-06-01T00:32:23.017Z,88.60
2019-06-01T00:34:52.856Z,88.10
2019-06-01T00:37:22.681Z,88.10
2019-06-01T00:39:52.533Z,88.00
2019-06-01T00:42:22.397Z,87.30
2019-06-01T00:44:52.585Z,87.30
2019-06-01T00:47:22.431Z,88.10
2019-06-01T00:49:53.113Z,87.90
2019-06-01T00:52:23.074Z,88.00
2019-06-01T00:54:53.640Z,87.50
2019-06-01T00:57:23.516Z,87.20
2019-06-01T00:59:55.006Z,87.50
2019-06-01T01:02:25.061Z,87.60
2019-06-01T01:05:07.555Z,87.90
2019-06-01T01:07:38.324Z,88.20
2019-06-01T01:10:09.589Z,87.90
2019-06-01T01:12:57.489Z,88.30
2019-06-01T01:15:27.319Z,87.70
2019-06-01T01:17:57.183Z,87.30
2019-06-01T01:20:27.012Z,87.60
2019-06-01T01:22:56.848Z,87.00
2019-06-01T01:25:26.687Z,87.40
2019-06-01T01:27:57.063Z,87.70
2019-06-01T01:30:27.135Z,87.70
2019-06-01T01:32:58.964Z,87.50
2019-06-01T01:35:28.793Z,87.20
2019-06-01T01:37:59.394Z,87.10
2019-06-01T01:40:29.521Z,87.70
2019-06-01T01:42:59.350Z,87.50
2019-06-01T01:45:29.548Z,87.40
2019-06-01T01:47:59.381Z,87.80
2019-06-01T01:50:29.521Z,87.70
2019-06-01T01:52:59.356Z,88.10
2019-06-01T01:55:29.478Z,89.00
2019-06-01T01:57:59.506Z,88.90
2019-06-01T02:00:46.552Z,89.70
2019-06-01T02:03:16.449Z,89.10
2019-06-01T02:05:46.363Z,88.60
2019-06-01T02:08:16.483Z,88.50
2019-06-01T02:10:46.317Z,88.10
2019-06-01T02:13:16.149Z,86.90
2019-06-01T02:15:46.062Z,88.10
2019-06-01T02:18:15.909Z,87.70
2019-06-01T02:20:45.749Z,88.00
2019-06-01T02:23:15.837Z,88.10
2019-06-01T02:25:45.932Z,88.40
2019-06-01T02:28:15.756Z,88.30
2019-06-01T02:30:46.238Z,88.00
2019-06-01T02:33:16.068Z,87.50
2019-06-01T02:35:46.147Z,87.30
2019-06-01T02:38:15.986Z,87.00
2019-06-01T02:40:45.857Z,87.50
2019-06-01T02:43:15.857Z,87.30
2019-06-01T02:45:45.770Z,87.70
2019-06-01T02:48:15.846Z,87.30
2019-06-01T02:50:45.692Z,87.40
2019-06-01T02:53:15.593Z,87.40
2019-06-01T02:55:45.703Z,87.30
2019-06-01T02:58:15.538Z,87.60
2019-06-01T03:00:48.451Z,88.50
2019-06-01T03:03:18.647Z,88.50
2019-06-01T03:05:49.695Z,88.90
2019-06-01T03:08:20.198Z,88.90
2019-06-01T03:10:51.778Z,89.70
2019-06-01T03:13:24.807Z,88.90
2019-06-01T03:15:58.754Z,88.80
2019-06-01T03:18:31.217Z,88.70
2019-06-01T03:21:05.057Z,88.20
2019-06-01T03:23:35.737Z,88.10
2019-06-01T03:26:08.627Z,88.10
2019-06-01T03:28:41.077Z,88.80
2019-06-01T03:31:11.162Z,88.70
2019-06-01T03:33:40.991Z,88.50
2019-06-01T03:36:10.919Z,88.70
2019-06-01T03:38:41.240Z,89.60
2019-06-01T03:41:12.325Z,90.00
2019-06-01T03:43:42.249Z,90.30
2019-06-01T03:46:13.062Z,90.30
2019-06-01T03:48:43.053Z,89.90
2019-06-01T03:51:12.992Z,90.00
2019-06-01T03:53:43.093Z,90.30
2019-06-01T03:56:13.004Z,90.30
2019-06-01T03:58:42.841Z,90.30
2019-06-01T04:01:12.720Z,90.50
2019-06-01T04:03:42.549Z,90.40
2019-06-01T04:06:12.389Z,90.10
2019-06-01T04:08:42.466Z,90.20
2019-06-01T04:11:12.553Z,90.10
2019-06-01T04:13:42.382Z,90.10
2019-06-01T04:16:12.228Z,90.10
2019-06-01T04:18:42.055Z,90.00
2019-06-01T04:21:12.179Z,90.00
2019-06-01T04:23:42.040Z,90.30
2019-06-01T04:26:12.295Z,90.70
2019-06-01T04:28:42.209Z,90.70
2019-06-01T04:31:12.858Z,90.40
2019-06-01T04:33:43.014Z,90.30
2019-06-01T04:36:13.155Z,90.10
2019-06-01T04:38:43.014Z,90.10
2019-06-01T04:41:14.136Z,90.00
2019-06-01T04:43:45.149Z,90.00
2019-06-01T04:46:14.994Z,90.30
2019-06-01T04:48:45.072Z,90.40
2019-06-01T04:51:15.026Z,90.50
2019-06-01T04:53:44.872Z,90.50
2019-06-01T04:56:15.244Z,90.90
2019-06-01T04:58:45.216Z,91.10
2019-06-01T05:01:15.179Z,91.20
2019-06-01T05:03:45.053Z,91.50
2019-06-01T05:06:15.494Z,91.70
2019-06-01T05:08:45.621Z,91.60
2019-06-01T05:11:15.787Z,91.60
2019-06-01T05:13:45.921Z,91.60
2019-06-01T05:16:16.597Z,91.90
2019-06-01T05:18:46.562Z,91.50
2019-06-01T05:21:16.892Z,91.30
2019-06-01T05:23:46.780Z,90.90
2019-06-01T05:26:17.153Z,90.40
2019-06-01T05:28:47.086Z,90.40
2019-06-01T05:31:23.468Z,90.30
2019-06-01T05:33:49.420Z,90.40
2019-06-01T05:36:19.270Z,90.20
2019-06-01T05:38:49.093Z,90.50
2019-06-01T05:41:19.905Z,90.00
2019-06-01T05:43:49.880Z,89.30
2019-06-01T05:46:19.706Z,88.50
2019-06-01T05:48:49.793Z,88.20
2019-06-01T05:51:20.165Z,88.10
2019-06-01T05:53:50.273Z,87.70
2019-06-01T05:56:20.121Z,87.40
2019-06-01T05:58:49.952Z,87.10
2019-06-01T06:01:19.802Z,86.60
2019-06-01T06:03:49.693Z,87.10
2019-06-01T06:06:19.922Z,87.20
2019-06-01T06:08:49.837Z,85.50
2019-06-01T06:11:19.688Z,84.60
2019-06-01T06:13:49.777Z,84.40
2019-06-01T06:16:20.989Z,83.60
2019-06-01T06:18:51.298Z,83.20
2019-06-01T06:21:22.296Z,83.10
2019-06-01T06:23:52.253Z,82.60
2019-06-01T06:26:22.842Z,83.20
2019-06-01T06:28:52.796Z,81.50
2019-06-01T06:31:23.268Z,81.10
2019-06-01T06:33:56.954Z,80.20
2019-06-01T06:36:25.026Z,79.10
2019-06-01T06:38:54.931Z,80.40
2019-06-01T06:41:24.759Z,80.20
2019-06-01T06:43:54.870Z,79.60
2019-06-01T06:46:24.898Z,79.60
2019-06-01T06:48:55.811Z,78.40
2019-06-01T06:51:26.475Z,76.80
2019-06-01T06:53:56.382Z,75.40
2019-06-01T06:56:26.307Z,76.30
2019-06-01T06:58:56.216Z,75.50
2019-06-01T07:01:27.126Z,75.70
2019-06-01T07:04:11.591Z,75.30
2019-06-01T07:06:41.286Z,75.90
2019-06-01T07:09:11.148Z,75.20
2019-06-01T07:11:41.109Z,75.10
2019-06-01T07:14:10.958Z,73.70
2019-06-01T07:16:40.807Z,74.40
2019-06-01T07:19:10.735Z,73.20
2019-06-01T07:21:40.589Z,72.60
2019-06-01T07:24:10.523Z,73.40
2019-06-01T07:26:40.401Z,73.40
2019-06-01T07:29:10.302Z,72.60
2019-06-01T07:31:40.144Z,73.10
2019-06-01T07:34:09.998Z,73.10
2019-06-01T07:36:39.837Z,72.00
2019-06-01T07:39:09.734Z,72.00
2019-06-01T07:41:39.616Z,70.80
2019-06-01T07:44:09.618Z,71.60
2019-06-01T07:46:39.522Z,70.90
2019-06-01T07:49:09.365Z,70.10
2019-06-01T07:51:39.236Z,69.40
2019-06-01T07:54:09.192Z,69.00
2019-06-01T07:56:39.089Z,68.60
2019-06-01T07:59:08.933Z,68.90
2019-06-01T08:01:38.793Z,68.90
2019-06-01T08:04:08.646Z,69.90
2019-06-01T08:06:45.171Z,69.80
2019-06-01T08:09:10.047Z,67.70
2019-06-01T08:11:39.901Z,66.90
2019-06-01T08:14:09.809Z,68.10
2019-06-01T08:16:39.667Z,68.40
2019-06-01T08:19:09.514Z,66.80
2019-06-01T08:21:39.361Z,66.90
2019-06-01T08:24:09.277Z,66.60
2019-06-01T08:26:39.161Z,65.90
2019-06-01T08:29:09.004Z,65.80
2019-06-01T08:31:38.867Z,65.80
2019-06-01T08:34:08.780Z,66.50
2019-06-01T08:36:38.934Z,62.90
2019-06-01T08:39:08.797Z,65.60
2019-06-01T08:41:39.549Z,66.50
2019-06-01T08:44:09.758Z,65.90
2019-06-01T08:46:39.623Z,66.00
2019-06-01T08:49:09.475Z,65.50
2019-06-01T08:51:39.410Z,68.20
2019-06-01T08:54:09.267Z,65.00
2019-06-01T08:56:39.106Z,64.30
2019-06-01T08:59:09.964Z,65.30
2019-06-01T09:01:39.806Z,63.80
2019-06-01T09:04:09.746Z,63.20
2019-06-01T09:06:39.578Z,65.30
2019-06-01T09:09:11.881Z,65.80
2019-06-01T09:11:41.274Z,63.80
2019-06-01T09:14:11.138Z,62.90
2019-06-01T09:16:40.966Z,65.90
2019-06-01T09:19:11.596Z,62.70
2019-06-01T09:21:41.652Z,64.60
2019-06-01T09:24:11.540Z,66.00
2019-06-01T09:26:41.627Z,62.70
2019-06-01T09:29:11.508Z,62.90
2019-06-01T09:31:41.420Z,63.30
2019-06-01T09:34:11.269Z,62.20
2019-06-01T09:36:41.197Z,62.10
2019-06-01T09:39:11.061Z,61.20
2019-06-01T09:41:40.918Z,61.40
2019-06-01T09:44:10.769Z,61.70
2019-06-01T09:46:40.639Z,60.70
2019-06-01T09:49:10.812Z,61.40
2019-06-01T09:51:40.744Z,61.40
2019-06-01T09:54:10.580Z,63.00
2019-06-01T09:56:41.421Z,63.30
2019-06-01T09:59:11.341Z,63.70
2019-06-01T10:23:06.251Z,52.10
2019-06-01T10:25:38.300Z,52.90
2019-06-01T10:28:08.450Z,53.20
2019-06-01T10:30:39.943Z,52.80
2019-06-01T10:33:09.859Z,51.90
2019-06-01T10:35:39.688Z,52.20
2019-06-01T10:38:09.534Z,52.80
2019-06-01T10:40:39.880Z,52.00
2019-06-01T10:43:09.776Z,50.70
2019-06-01T10:45:39.967Z,51.10
2019-06-01T10:48:10.793Z,49.80
2019-06-01T10:50:40.726Z,50.80
2019-06-01T10:53:10.614Z,49.90
2019-06-01T10:55:40.455Z,50.30
2019-06-01T10:58:10.280Z,49.90
2019-06-01T11:00:46.718Z,49.10
2019-06-01T11:03:11.685Z,49.70
2019-06-01T11:05:41.520Z,49.40
2019-06-01T11:08:12.322Z,50.50
2019-06-01T11:10:43.247Z,51.20
2019-06-01T11:13:13.256Z,51.00
2019-06-01T11:15:43.347Z,51.10
2019-06-01T11:18:13.304Z,50.40
2019-06-01T11:20:43.637Z,50.60
2019-06-01T11:23:13.557Z,51.10
2019-06-01T11:25:43.775Z,50.60
2019-06-01T11:28:13.708Z,50.60
2019-06-01T11:30:43.965Z,50.70
2019-06-01T11:33:13.853Z,51.10
2019-06-01T11:35:43.697Z,50.90
2019-06-01T11:38:13.522Z,49.90
2019-06-01T11:40:44.814Z,49.90
2019-06-01T11:43:14.782Z,50.40
2019-06-01T11:45:45.231Z,50.60
2019-06-01T11:48:15.230Z,51.30
2019-06-01T11:50:45.418Z,50.80
2019-06-01T11:53:15.364Z,50.40
2019-06-01T11:55:45.539Z,50.70
2019-06-01T11:58:15.631Z,48.90
2019-06-01T12:00:45.838Z,50.10
2019-06-01T12:03:15.841Z,50.00
2019-06-01T12:05:46.114Z,50.70
2019-06-01T12:08:16.063Z,49.00
2019-06-01T12:10:45.910Z,50.40
2019-06-01T12:13:15.749Z,49.10
2019-06-01T12:15:46.421Z,50.90
2019-06-01T12:22:09.803Z,51.80
2019-06-01T12:24:40.950Z,49.70
2019-06-01T12:27:10.865Z,49.60
2019-06-01T12:29:41.496Z,49.80
2019-06-01T12:32:11.444Z,50.40
2019-06-01T12:34:41.954Z,49.60
2019-06-01T12:37:11.981Z,49.60
2019-06-01T12:39:42.323Z,48.00
2019-06-01T12:42:12.332Z,48.30
2019-06-01T12:44:42.159Z,49.90
2019-06-01T12:47:11.995Z,49.80
2019-06-01T12:49:42.208Z,48.90
2019-06-01T12:52:12.056Z,48.60
2019-06-01T12:54:42.918Z,49.10
2019-06-01T12:57:12.898Z,48.50
2019-06-01T12:59:43.202Z,49.50
2019-06-01T13:02:13.157Z,48.30
2019-06-01T13:04:44.724Z,47.80
2019-06-01T13:07:14.781Z,49.40
2019-06-01T13:09:44.605Z,48.50
2019-06-01T13:12:14.707Z,49.50
2019-06-01T13:14:45.176Z,49.80
2019-06-01T13:17:15.106Z,48.80
2019-06-01T13:19:45.330Z,48.20
2019-06-01T13:22:15.245Z,49.30
2019-06-01T13:24:45.779Z,50.10
2019-06-01T13:27:15.697Z,47.50
2019-06-01T13:29:45.806Z,47.80
2019-06-01T13:32:15.743Z,49.80
2019-06-01T13:34:47.033Z,49.40
2019-06-01T13:37:17.080Z,48.70
2019-06-01T13:39:52.590Z,48.50
2019-06-01T13:42:18.450Z,49.30
2019-06-01T13:44:49.510Z,46.60
2019-06-01T13:47:19.457Z,47.40
2019-06-01T13:49:50.114Z,48.00
2019-06-01T13:52:19.996Z,48.70
2019-06-01T13:54:50.622Z,47.30
2019-06-01T13:57:20.542Z,47.90
2019-06-01T13:59:50.911Z,48.60
2019-06-01T14:02:20.899Z,45.10
2019-06-01T14:04:52.038Z,46.30
2019-06-01T14:07:22.044Z,46.40
2019-06-01T14:09:52.503Z,47.90
2019-06-01T14:12:23.602Z,47.60
2019-06-01T14:14:53.599Z,46.30
2019-06-01T14:17:23.569Z,45.70
2019-06-01T14:19:53.821Z,46.00
2019-06-01T14:22:23.808Z,46.60
2019-06-01T14:25:11.475Z,46.40
2019-06-01T14:27:25.214Z,46.90
2019-06-01T14:29:56.399Z,46.60
2019-06-01T14:32:26.356Z,46.30
2019-06-01T14:34:56.962Z,45.00
2019-06-01T14:37:26.909Z,47.00
2019-06-01T14:39:57.067Z,48.70
2019-06-01T14:42:27.039Z,45.20
2019-06-01T14:44:58.038Z,44.80
2019-06-01T14:47:28.086Z,46.00
2019-06-01T14:49:58.193Z,45.60
2019-06-01T14:52:28.025Z,47.00
2019-06-01T14:54:58.065Z,46.80
2019-06-01T14:57:27.965Z,45.40
2019-06-01T14:59:58.862Z,46.10
2019-06-01T15:02:28.691Z,45.50
2019-06-01T15:04:58.734Z,47.00
2019-06-01T15:07:28.626Z,46.40
2019-06-01T15:09:58.517Z,46.10
2019-06-01T15:12:28.389Z,45.50
2019-06-01T15:14:59.492Z,45.80
2019-06-01T15:17:30.523Z,47.80
2019-06-01T15:20:00.365Z,47.80
2019-06-01T15:22:30.517Z,47.30
2019-06-01T15:25:00.360Z,46.70
2019-06-01T15:27:30.180Z,45.80
2019-06-01T15:30:00.035Z,44.70
2019-06-01T15:32:29.858Z,45.80
2019-06-01T15:35:00.027Z,46.10
2019-06-01T15:37:31.101Z,45.40
2019-06-01T15:40:00.945Z,46.00
2019-06-01T15:42:31.022Z,45.60
2019-06-01T15:45:01.498Z,46.10
2019-06-01T15:47:31.461Z,46.30
2019-06-01T15:50:02.666Z,45.80
2019-06-01T15:52:32.590Z,44.80
2019-06-01T15:55:04.670Z,46.00
2019-06-01T15:57:34.496Z,47.20
2019-06-01T16:00:09.598Z,46.60
2019-06-01T16:02:39.428Z,46.60
2019-06-01T16:05:10.149Z,47.10
2019-06-01T16:07:39.979Z,46.60
2019-06-01T16:10:10.164Z,47.30
2019-06-01T16:12:40.001Z,46.40
2019-06-01T16:15:10.339Z,46.40
2019-06-01T16:17:40.173Z,46.90
2019-06-01T16:20:10.546Z,46.30
2019-06-01T16:22:40.462Z,47.00
2019-06-01T16:25:21.277Z,46.80
2019-06-01T16:27:51.112Z,47.90
2019-06-01T16:30:20.958Z,48.30
2019-06-01T16:32:50.838Z,48.70
2019-06-01T16:35:20.677Z,47.40
2019-06-01T16:37:50.509Z,48.70
2019-06-01T16:40:20.417Z,48.30
2019-06-01T16:42:50.274Z,48.40
2019-06-01T16:45:20.184Z,49.70
2019-06-01T16:47:50.013Z,49.00
2019-06-01T16:50:19.997Z,50.40
2019-06-01T16:52:49.833Z,50.00
2019-06-01T16:55:19.668Z,50.30
2019-06-01T16:57:49.546Z,48.90
2019-06-01T17:00:19.682Z,49.30
2019-06-01T17:02:49.555Z,48.40
2019-06-01T17:05:19.438Z,49.40
2019-06-01T17:07:49.265Z,50.10
2019-06-01T17:10:26.167Z,51.10
2019-06-01T17:12:50.972Z,51.90
2019-06-01T17:15:20.962Z,50.40
2019-06-01T17:17:50.789Z,50.70
2019-06-01T17:20:41.082Z,50.60
2019-06-01T17:23:26.325Z,50.80
2019-06-01T17:25:43.523Z,51.60
2019-06-01T17:28:13.361Z,51.00
2019-06-01T17:30:43.203Z,50.60
2019-06-01T17:33:13.102Z,49.90
2019-06-01T17:35:42.942Z,50.80
2019-06-01T17:38:12.929Z,50.80
2019-06-01T17:40:43.552Z,51.40
2019-06-01T17:43:13.594Z,49.90
2019-06-01T17:45:43.469Z,50.90
2019-06-01T17:48:24.869Z,52.20
2019-06-01T17:50:44.865Z,52.80
2019-06-01T17:53:14.689Z,53.30
2019-06-01T17:55:44.604Z,51.80
2019-06-01T17:58:15.075Z,52.40
2019-06-01T18:00:45.041Z,52.30
2019-06-01T18:03:14.860Z,54.10
2019-06-01T18:05:45.763Z,52.80
2019-06-01T18:08:15.737Z,51.60
2019-06-01T18:10:54.027Z,53.00
2019-06-01T18:13:17.105Z,53.60
2019-06-01T18:15:50.005Z,53.40
2019-06-01T18:18:18.486Z,53.70
2019-06-01T18:20:48.464Z,53.90
2019-06-01T18:23:18.283Z,54.40
2019-06-01T18:25:48.280Z,54.20
2019-06-01T18:28:19.618Z,54.40
2019-06-01T18:30:50.771Z,53.40
2019-06-01T18:33:21.095Z,53.30
2019-06-01T18:35:50.988Z,54.20
2019-06-01T18:38:20.820Z,53.90
2019-06-01T18:40:50.722Z,54.80
2019-06-01T18:43:20.556Z,55.00
2019-06-01T18:45:50.481Z,55.00
2019-06-01T18:48:21.342Z,55.90
2019-06-01T18:50:51.189Z,57.80
2019-06-01T18:53:21.019Z,58.00
2019-06-01T18:55:50.950Z,57.50
2019-06-01T18:58:20.831Z,59.00
2019-06-01T19:00:50.694Z,60.50
2019-06-01T19:03:22.182Z,60.60
2019-06-01T19:05:52.264Z,62.00
2019-06-01T19:08:22.088Z,62.80
2019-06-01T19:10:52.004Z,65.00
2019-06-01T19:13:21.948Z,65.30
2019-06-01T19:15:51.802Z,65.30
2019-06-01T19:18:21.632Z,67.10
2019-06-01T19:20:51.510Z,68.90
2019-06-01T19:23:22.983Z,70.60
2019-06-01T19:25:52.918Z,71.20
2019-06-01T19:28:22.751Z,70.50
2019-06-01T19:30:52.601Z,71.80
2019-06-01T19:33:22.444Z,72.70
2019-06-01T19:35:53.131Z,72.20
2019-06-01T19:38:23.133Z,71.90
2019-06-01T19:40:52.972Z,72.20
2019-06-01T19:43:22.805Z,72.20
2019-06-01T19:45:52.645Z,72.60
2019-06-01T19:48:22.479Z,74.00
2019-06-01T19:50:53.414Z,75.00
2019-06-01T19:53:23.326Z,76.10
2019-06-01T19:55:53.159Z,76.60
2019-06-01T19:58:23.037Z,77.30
2019-06-01T20:00:52.861Z,77.80
2019-06-01T20:03:23.934Z,78.50
2019-06-01T20:05:53.861Z,78.80
2019-06-01T20:08:23.686Z,79.50
2019-06-01T20:10:53.517Z,79.60
2019-06-01T20:13:23.410Z,79.50
2019-06-01T20:15:53.280Z,80.00
2019-06-01T20:18:23.194Z,80.00
2019-06-01T20:20:53.085Z,80.20
2019-06-01T20:23:22.921Z,79.90
2019-06-01T20:25:52.762Z,81.00
2019-06-01T20:28:22.605Z,81.00
2019-06-01T20:30:52.422Z,81.50
2019-06-01T20:33:22.626Z,82.40
2019-06-01T20:35:52.685Z,83.30
2019-06-01T20:38:23.310Z,83.10
2019-06-01T20:40:53.517Z,83.70
2019-06-01T20:43:24.332Z,84.20
2019-06-01T20:45:56.741Z,84.50
2019-06-01T20:48:25.761Z,85.20
2019-06-01T20:50:56.565Z,84.90
2019-06-01T20:53:26.417Z,85.00
2019-06-01T20:55:56.241Z,85.00
2019-06-01T20:58:26.164Z,84.80
2019-06-01T21:00:56.003Z,85.10
2019-06-01T21:03:25.834Z,84.80
2019-06-01T21:05:55.672Z,85.00
2019-06-01T21:08:25.504Z,85.20
2019-06-01T21:10:56.405Z,85.80
2019-06-01T21:13:26.268Z,85.30
2019-06-01T21:15:56.106Z,86.40
2019-06-01T21:18:25.958Z,86.30
2019-06-01T21:20:55.788Z,86.30
2019-06-01T21:23:25.634Z,86.50
2019-06-01T21:25:56.043Z,87.00
2019-06-01T21:28:26.951Z,86.90
2019-06-01T21:30:56.845Z,86.80
2019-06-01T21:33:28.729Z,87.40
2019-06-01T21:35:58.208Z,87.20
2019-06-01T21:38:28.049Z,86.80
2019-06-01T21:40:57.963Z,87.20
2019-06-01T21:43:34.761Z,87.00
2019-06-01T21:46:00.398Z,87.20
2019-06-01T21:48:30.270Z,87.00
2019-06-01T21:51:00.167Z,87.70
2019-06-01T21:53:29.998Z,88.70
2019-06-01T21:55:59.832Z,88.70
2019-06-01T21:58:29.672Z,87.80
2019-06-01T22:01:00.622Z,88.30
2019-06-01T22:03:30.517Z,88.00
2019-06-01T22:06:00.339Z,87.70
2019-06-01T22:08:30.184Z,88.70
2019-06-01T22:11:00.111Z,88.90
2019-06-01T22:13:30.668Z,88.40
2019-06-01T22:16:00.505Z,88.30
2019-06-01T22:18:30.336Z,88.10
2019-06-01T22:21:00.181Z,88.20
2019-06-01T22:23:30.054Z,88.60
2019-06-01T22:26:00.949Z,88.40
2019-06-01T22:28:30.792Z,88.30
2019-06-01T22:31:00.649Z,88.90
2019-06-01T22:33:30.508Z,88.50
2019-06-01T22:36:00.415Z,89.40
2019-06-01T22:38:30.522Z,88.60
2019-06-01T22:41:00.336Z,89.70
2019-06-01T22:43:42.414Z,90.10
2019-06-01T22:46:01.751Z,89.60
2019-06-01T22:48:32.853Z,89.80
2019-06-01T22:51:02.835Z,90.00
2019-06-01T22:53:32.681Z,90.20
2019-06-01T22:56:03.477Z,90.40
2019-06-01T22:58:33.326Z,90.40
2019-06-01T23:01:03.180Z,90.10
2019-06-01T23:03:33.074Z,90.80
2019-06-01T23:06:02.906Z,90.20
2019-06-01T23:08:32.738Z,90.60
2019-06-01T23:11:02.569Z,90.50
2019-06-01T23:13:32.510Z,90.40
2019-06-01T23:16:03.393Z,90.20
2019-06-01T23:18:33.257Z,90.60
2019-06-01T23:21:03.101Z,90.80
2019-06-01T23:23:33.908Z,90.90
2019-06-01T23:26:04.877Z,90.80
2019-06-01T23:28:38.532Z,90.50
2019-06-01T23:31:06.257Z,91.00
2019-06-01T23:33:36.092Z,91.10
2019-06-01T23:36:06.218Z,91.10
2019-06-01T23:38:36.065Z,90.70
2019-06-01T23:41:05.953Z,91.20
2019-06-01T23:43:35.802Z,91.00
2019-06-01T23:46:05.630Z,91.20
2019-06-01T23:48:35.482Z,91.10
2019-06-01T23:51:05.320Z,90.70
2019-06-01T23:53:35.158Z,91.10
2019-06-01T23:56:04.994Z,91.40
2019-06-01T23:58:34.838Z,91.20
